createdAt,value
2023-02-03T00:01:43.175Z,11.90
2023-02-03T00:04:11.657Z,12.68
2023-02-03T00:06:40.020Z,13.23
2023-02-03T00:09:09.062Z,12.10
2023-02-03T00:11:39.695Z,12.15
2023-02-03T00:14:09.955Z,10.57
2023-02-03T00:16:38.622Z,12.57
2023-02-03T00:19:08.211Z,11.90
2023-02-03T00:21:37.238Z,11.07
2023-02-03T00:24:08.714Z,10.48
2023-02-03T00:26:42.584Z,10.70
2023-02-03T00:29:11.304Z,12.00
2023-02-03T00:31:39.589Z,10.55
2023-02-03T00:34:08.120Z,10.98
2023-02-03T00:36:38.669Z,11.70
2023-02-03T00:39:09.529Z,12.88
2023-02-03T00:41:39.712Z,10.07
2023-02-03T00:44:08.712Z,13.75
2023-02-03T00:46:37.117Z,9.40
2023-02-03T00:49:10.490Z,10.95
2023-02-03T00:51:38.779Z,10.15
2023-02-03T00:54:07.126Z,12.60
2023-02-03T00:56:36.602Z,9.48
2023-02-03T00:59:06.932Z,11.75
2023-02-03T01:01:35.685Z,11.05
2023-02-03T01:04:05.564Z,9.95
2023-02-03T01:06:34.270Z,9.65
2023-02-03T01:09:03.030Z,10.63
2023-02-03T01:11:33.012Z,11.07
2023-02-03T01:14:03.617Z,9.52
2023-02-03T01:16:36.488Z,10.10
2023-02-03T01:19:05.567Z,10.18
2023-02-03T01:21:38.502Z,9.68
2023-02-03T01:24:09.109Z,11.13
2023-02-03T01:26:39.801Z,9.38
2023-02-03T01:29:08.508Z,9.77
2023-02-03T01:31:42.772Z,10.43
2023-02-03T01:34:13.948Z,8.85
2023-02-03T01:36:43.710Z,10.03
2023-02-03T01:39:13.286Z,10.00
2023-02-03T01:41:42.747Z,9.40
2023-02-03T01:44:44.929Z,9.20
2023-02-03T01:47:26.770Z,8.52
2023-02-03T01:50:01.045Z,10.55
2023-02-03T01:52:31.933Z,11.63
2023-02-03T01:55:04.110Z,11.55
2023-02-03T01:57:36.398Z,10.35
2023-02-03T02:00:09.950Z,11.32
2023-02-03T02:02:40.307Z,10.43
2023-02-03T02:05:13.641Z,8.45
2023-02-03T02:07:44.727Z,9.32
2023-02-03T02:10:13.764Z,9.80
2023-02-03T02:12:42.840Z,8.65
2023-02-03T02:15:11.953Z,9.15
2023-02-03T02:18:03.257Z,9.70
2023-02-03T02:20:41.413Z,8.60
2023-02-03T02:23:38.116Z,9.63
2023-02-03T02:26:45.251Z,9.23
2023-02-03T02:29:57.077Z,8.90
2023-02-03T02:32:41.474Z,9.02
2023-02-03T02:35:21.323Z,9.32
2023-02-03T02:37:55.317Z,8.55
2023-02-03T02:40:30.014Z,9.43
2023-02-03T02:43:09.454Z,9.82
2023-02-03T02:45:48.973Z,7.75
2023-02-03T02:48:25.030Z,9.30
2023-02-03T02:50:57.033Z,9.65
2023-02-03T02:53:28.348Z,9.60
2023-02-03T02:55:59.209Z,9.88
2023-02-03T02:58:30.244Z,9.23
2023-02-03T03:01:00.123Z,11.97
2023-02-03T03:03:31.997Z,9.15
2023-02-03T03:06:03.681Z,9.40
2023-02-03T03:08:40.859Z,8.88
2023-02-03T03:11:10.035Z,11.13
2023-02-03T03:13:45.646Z,9.32
2023-02-03T03:16:19.932Z,8.85
2023-02-03T03:18:53.126Z,10.10
2023-02-03T03:21:27.065Z,9.73
2023-02-03T03:23:58.790Z,8.95
2023-02-03T03:26:34.270Z,9.30
2023-02-03T03:29:12.225Z,8.93
2023-02-03T03:31:43.360Z,9.07
2023-02-03T03:34:15.817Z,9.48
2023-02-03T03:36:49.978Z,9.55
2023-02-03T03:39:27.671Z,8.73
2023-02-03T03:42:06.498Z,8.43
2023-02-03T03:44:39.220Z,9.18
2023-02-03T03:47:13.552Z,10.00
2023-02-03T03:49:46.227Z,9.50
2023-02-03T03:52:21.449Z,9.13
2023-02-03T03:54:52.842Z,7.90
2023-02-03T03:57:27.318Z,8.48
2023-02-03T03:59:56.432Z,10.15
2023-02-03T04:02:25.607Z,9.85
2023-02-03T04:05:00.327Z,8.88
2023-02-03T04:07:40.784Z,9.25
2023-02-03T04:10:17.585Z,9.35
2023-02-03T04:12:53.958Z,8.57
2023-02-03T04:15:23.135Z,10.20
2023-02-03T04:17:52.358Z,9.32
2023-02-03T04:20:22.699Z,8.77
2023-02-03T04:22:51.564Z,9.00
2023-02-03T04:25:23.871Z,10.27
2023-02-03T04:27:53.680Z,12.63
2023-02-03T04:30:22.017Z,8.80
2023-02-03T04:32:50.740Z,9.45
2023-02-03T04:35:20.049Z,10.65
2023-02-03T04:37:50.207Z,11.55
2023-02-03T04:40:19.928Z,9.90
2023-02-03T04:42:48.341Z,9.45
2023-02-03T04:45:16.920Z,11.77
2023-02-03T04:47:45.498Z,10.63
2023-02-03T04:50:15.259Z,9.25
2023-02-03T04:52:47.349Z,12.45
2023-02-03T04:55:17.310Z,9.40
2023-02-03T04:57:45.937Z,9.10
2023-02-03T05:00:17.635Z,8.48
2023-02-03T05:02:46.587Z,10.70
2023-02-03T05:05:15.103Z,11.40
2023-02-03T05:07:43.904Z,11.70
2023-02-03T05:10:12.957Z,13.70
2023-02-03T05:12:43.095Z,10.00
2023-02-03T05:15:11.906Z,12.88
2023-02-03T05:17:40.404Z,11.20
2023-02-03T05:20:10.651Z,13.18
2023-02-03T05:22:42.125Z,10.98
2023-02-03T05:25:11.163Z,10.02
2023-02-03T05:27:40.525Z,11.40
2023-02-03T05:30:14.559Z,10.85
2023-02-03T05:32:43.196Z,9.43
2023-02-03T05:35:11.651Z,13.45
2023-02-03T05:37:40.515Z,10.30
2023-02-03T05:40:28.160Z,11.00
2023-02-03T05:42:56.993Z,13.25
2023-02-03T05:45:26.697Z,10.73
2023-02-03T05:47:55.218Z,10.48
2023-02-03T05:50:25.561Z,11.40
2023-02-03T05:52:53.955Z,11.55
2023-02-03T05:55:22.194Z,10.43
2023-02-03T05:57:52.106Z,10.00
2023-02-03T06:00:22.143Z,12.60
2023-02-03T06:02:56.907Z,10.27
2023-02-03T06:05:26.654Z,10.32
2023-02-03T06:07:55.741Z,12.18
2023-02-03T06:10:24.178Z,11.85
2023-02-03T06:12:53.367Z,12.85
2023-02-03T06:15:23.476Z,11.20
2023-02-03T06:17:54.379Z,10.35
2023-02-03T06:20:23.200Z,14.00
2023-02-03T06:22:52.694Z,11.63
2023-02-03T06:25:21.142Z,11.13
2023-02-03T06:27:49.755Z,12.20
2023-02-03T06:30:19.751Z,11.77
2023-02-03T06:32:49.628Z,13.27
2023-02-03T06:35:19.884Z,18.05
2023-02-03T06:37:48.990Z,16.10
2023-02-03T06:40:17.791Z,21.15
2023-02-03T06:42:49.213Z,31.25
2023-02-03T06:45:18.315Z,22.25
2023-02-03T06:47:47.553Z,26.30
2023-02-03T06:50:18.068Z,19.60
2023-02-03T06:52:48.211Z,29.63
2023-02-03T06:55:18.131Z,27.60
2023-02-03T06:57:47.952Z,14.60
2023-02-03T07:00:19.144Z,15.30
2023-02-03T07:02:55.908Z,12.30
2023-02-03T07:05:25.444Z,16.15
2023-02-03T07:07:57.272Z,15.48
2023-02-03T07:10:25.685Z,16.15
2023-02-03T07:12:54.067Z,12.02
2023-02-03T07:15:22.532Z,14.02
2023-02-03T07:17:55.821Z,14.60
2023-02-03T07:20:26.784Z,21.65
2023-02-03T07:22:58.159Z,17.47
2023-02-03T07:25:27.753Z,16.63
2023-02-03T07:27:57.658Z,15.27
2023-02-03T07:30:29.252Z,18.13
2023-02-03T07:33:02.090Z,15.07
2023-02-03T07:35:30.737Z,16.05
2023-02-03T07:38:01.274Z,15.75
2023-02-03T07:40:30.025Z,17.38
2023-02-03T07:42:59.905Z,16.98
2023-02-03T07:45:28.987Z,18.67
2023-02-03T07:47:58.670Z,16.27
2023-02-03T07:50:29.026Z,18.90
2023-02-03T07:52:57.739Z,18.08
2023-02-03T07:55:29.796Z,21.80
2023-02-03T07:57:58.886Z,18.92
2023-02-03T08:00:28.043Z,19.63
2023-02-03T08:02:56.460Z,25.85
2023-02-03T08:05:24.787Z,19.05
2023-02-03T08:07:53.361Z,18.58
2023-02-03T08:10:24.769Z,20.75
2023-02-03T08:12:56.339Z,18.10
2023-02-03T08:15:24.562Z,17.90
2023-02-03T08:17:52.938Z,17.63
2023-02-03T08:20:21.513Z,15.48
2023-02-03T08:22:49.917Z,14.43
2023-02-03T08:25:19.015Z,12.13
2023-02-03T08:27:48.523Z,12.10
2023-02-03T08:30:18.559Z,12.27
2023-02-03T08:32:49.464Z,12.90
2023-02-03T08:35:18.003Z,11.82
2023-02-03T08:37:46.311Z,13.48
2023-02-03T08:40:14.921Z,11.98
2023-02-03T08:42:43.453Z,10.55
2023-02-03T08:45:12.180Z,9.77
2023-02-03T08:47:41.991Z,10.45
2023-02-03T08:50:11.985Z,11.23
2023-02-03T08:52:40.385Z,9.65
2023-02-03T08:55:09.453Z,10.15
2023-02-03T08:57:42.073Z,13.82
2023-02-03T09:00:12.355Z,11.80
2023-02-03T09:02:42.015Z,11.85
2023-02-03T09:05:11.174Z,11.07
2023-02-03T09:07:39.654Z,10.90
2023-02-03T09:10:09.359Z,10.73
2023-02-03T09:12:38.225Z,10.43
2023-02-03T09:15:08.440Z,23.60
2023-02-03T09:17:36.743Z,22.30
2023-02-03T09:20:07.614Z,11.80
2023-02-03T09:22:36.324Z,13.57
2023-02-03T09:25:05.795Z,10.38
2023-02-03T09:27:34.848Z,16.45
2023-02-03T09:30:03.702Z,13.63
2023-02-03T09:32:34.012Z,15.32
2023-02-03T09:35:02.926Z,12.95
2023-02-03T09:37:35.996Z,14.55
2023-02-03T09:40:05.635Z,20.77
2023-02-03T09:42:56.908Z,15.93
2023-02-03T09:45:28.280Z,21.20
2023-02-03T09:48:02.485Z,19.88
2023-02-03T09:50:35.310Z,21.88
2023-02-03T09:53:09.786Z,20.05
2023-02-03T09:55:45.343Z,24.80
2023-02-03T09:58:15.658Z,42.33
2023-02-03T10:00:49.338Z,41.58
2023-02-03T10:03:30.763Z,41.38
2023-02-03T10:06:15.280Z,25.90
2023-02-03T10:09:13.932Z,35.58
2023-02-03T10:11:54.774Z,28.55
2023-02-03T10:14:38.844Z,28.52
2023-02-03T10:17:20.164Z,31.45
2023-02-03T10:19:52.645Z,33.47
2023-02-03T10:22:25.871Z,32.25
2023-02-03T10:25:02.364Z,30.15
2023-02-03T10:27:34.461Z,28.63
2023-02-03T10:30:09.143Z,30.92
2023-02-03T10:32:37.960Z,32.95
2023-02-03T10:35:13.237Z,37.05
2023-02-03T10:37:46.038Z,35.00
2023-02-03T10:40:17.577Z,35.60
2023-02-03T10:43:07.055Z,35.83
2023-02-03T10:45:39.080Z,35.45
2023-02-03T10:50:45.750Z,37.28
2023-02-03T10:53:26.033Z,39.78
2023-02-03T10:56:03.824Z,38.72
2023-02-03T10:58:34.388Z,34.03
2023-02-03T11:01:11.372Z,32.57
2023-02-03T11:03:42.207Z,30.95
2023-02-03T11:06:12.862Z,35.05
2023-02-03T11:08:45.344Z,39.95
2023-02-03T11:11:25.409Z,36.95
2023-02-03T11:14:12.107Z,31.17
2023-02-03T11:16:43.405Z,29.42
2023-02-03T11:19:19.236Z,31.00
2023-02-03T11:21:50.724Z,31.88
2023-02-03T11:24:21.873Z,32.45
2023-02-03T11:26:56.339Z,31.17
2023-02-03T11:29:28.591Z,31.08
2023-02-03T11:31:58.930Z,31.77
2023-02-03T11:34:30.781Z,33.17
2023-02-03T11:36:59.936Z,35.22
2023-02-03T11:39:30.304Z,48.20
2023-02-03T11:42:02.653Z,42.47
2023-02-03T11:44:33.713Z,39.50
2023-02-03T11:47:06.377Z,31.52
2023-02-03T11:50:02.254Z,29.65
2023-02-03T11:52:58.482Z,31.15
2023-02-03T11:55:40.069Z,29.00
2023-02-03T11:58:26.036Z,28.58
2023-02-03T12:01:01.977Z,24.70
2023-02-03T12:04:08.163Z,30.30
2023-02-03T12:07:01.686Z,26.15
2023-02-03T12:09:40.702Z,28.10
2023-02-03T12:12:28.272Z,25.15
2023-02-03T12:15:08.401Z,25.98
2023-02-03T12:18:05.627Z,27.05
2023-02-03T12:20:45.803Z,27.35
2023-02-03T12:23:32.016Z,28.35
2023-02-03T12:26:10.545Z,31.08
2023-02-03T12:28:49.831Z,30.00
2023-02-03T12:31:31.797Z,32.80
2023-02-03T12:34:14.141Z,29.23
2023-02-03T12:36:47.374Z,33.20
2023-02-03T12:39:23.953Z,32.30
2023-02-03T12:42:01.504Z,30.45
2023-02-03T12:44:35.090Z,28.77
2023-02-03T12:47:13.414Z,31.83
2023-02-03T12:49:46.631Z,26.98
2023-02-03T12:52:25.084Z,29.55
2023-02-03T12:55:01.364Z,32.60
2023-02-03T12:57:35.934Z,29.25
2023-02-03T13:00:27.118Z,28.92
2023-02-03T13:03:07.603Z,27.83
2023-02-03T13:05:44.938Z,26.20
2023-02-03T13:08:29.789Z,25.98
2023-02-03T13:11:08.436Z,28.00
2023-02-03T13:13:43.977Z,31.15
2023-02-03T13:16:15.079Z,30.00
2023-02-03T13:21:19.942Z,38.22
2023-02-03T13:23:50.381Z,39.92
2023-02-03T13:26:57.199Z,52.47
2023-02-03T13:29:43.852Z,36.83
2023-02-03T13:32:26.723Z,35.47
2023-02-03T13:35:24.799Z,34.17
2023-02-03T13:38:32.922Z,37.42
2023-02-03T13:41:07.417Z,41.30
2023-02-03T13:43:40.063Z,46.53
2023-02-03T13:46:21.252Z,44.97
2023-02-03T13:48:57.780Z,48.85
2023-02-03T13:51:34.602Z,47.55
2023-02-03T13:54:09.896Z,46.45
2023-02-03T13:56:38.667Z,44.70
2023-02-03T13:59:28.936Z,45.05
2023-02-03T14:02:45.790Z,47.25
2023-02-03T14:05:42.963Z,51.22
2023-02-03T14:08:55.973Z,51.67
2023-02-03T14:11:44.270Z,48.17
2023-02-03T14:14:42.930Z,48.10
2023-02-03T14:17:44.765Z,50.05
2023-02-03T14:21:04.142Z,45.65
2023-02-03T14:23:42.998Z,45.17
2023-02-03T14:26:20.903Z,44.88
2023-02-03T14:28:53.855Z,57.95
2023-02-03T14:31:25.133Z,55.38
2023-02-03T14:34:15.540Z,57.72
2023-02-03T14:36:55.775Z,55.58
2023-02-03T14:39:55.416Z,53.55
2023-02-03T14:43:11.305Z,47.88
2023-02-03T14:46:00.063Z,48.72
2023-02-03T14:48:46.625Z,52.00
2023-02-03T14:51:27.464Z,47.55
2023-02-03T14:54:12.319Z,53.72
2023-02-03T14:57:08.105Z,52.92
2023-02-03T14:59:43.182Z,48.25
2023-02-03T15:02:32.269Z,52.67
2023-02-03T15:05:39.101Z,45.05
2023-02-03T15:08:50.609Z,41.88
2023-02-03T15:11:31.887Z,45.92
2023-02-03T15:14:19.866Z,44.70
2023-02-03T15:16:57.566Z,45.65
2023-02-03T15:19:33.399Z,37.95
2023-02-03T15:22:04.307Z,34.90
2023-02-03T15:24:41.656Z,37.10
2023-02-03T15:27:24.903Z,38.38
2023-02-03T15:30:01.356Z,37.17
2023-02-03T15:32:35.465Z,33.65
2023-02-03T15:35:17.614Z,36.35
2023-02-03T15:37:51.504Z,36.05
2023-02-03T15:40:30.364Z,39.85
2023-02-03T15:43:05.505Z,33.90
2023-02-03T15:45:37.945Z,34.53
2023-02-03T15:48:13.504Z,33.45
2023-02-03T15:50:54.194Z,35.92
2023-02-03T15:53:31.963Z,34.50
2023-02-03T15:56:18.687Z,36.70
2023-02-03T15:58:50.645Z,34.35
2023-02-03T16:01:26.509Z,36.35
2023-02-03T16:03:58.905Z,37.05
2023-02-03T16:06:39.320Z,45.05
2023-02-03T16:09:29.277Z,48.28
2023-02-03T16:12:09.493Z,45.17
2023-02-03T16:14:41.171Z,46.05
2023-02-03T16:17:27.316Z,37.88
2023-02-03T16:20:26.192Z,35.45
2023-02-03T16:23:08.948Z,29.88
2023-02-03T16:25:39.896Z,32.75
2023-02-03T16:28:36.900Z,29.35
2023-02-03T16:31:32.714Z,24.42
2023-02-03T16:34:21.615Z,22.27
2023-02-03T16:37:07.343Z,20.15
2023-02-03T16:39:56.189Z,20.02
2023-02-03T16:42:47.195Z,20.08
2023-02-03T16:45:36.631Z,19.80
2023-02-03T16:48:24.678Z,17.23
2023-02-03T16:50:58.214Z,22.17
2023-02-03T16:53:33.207Z,17.27
2023-02-03T16:56:05.873Z,15.43
2023-02-03T16:58:39.000Z,14.35
2023-02-03T17:01:11.714Z,11.07
2023-02-03T17:03:42.089Z,11.57
2023-02-03T17:06:13.067Z,11.60
2023-02-03T17:08:46.798Z,11.68
2023-02-03T17:11:20.782Z,11.20
2023-02-03T17:13:54.492Z,10.93
2023-02-03T17:16:24.993Z,11.35
2023-02-03T17:18:58.427Z,11.73
2023-02-03T17:21:30.072Z,12.95
2023-02-03T17:24:00.569Z,12.30
2023-02-03T17:26:35.285Z,13.75
2023-02-03T17:29:04.462Z,13.90
2023-02-03T17:31:33.646Z,13.35
2023-02-03T17:34:03.910Z,13.75
2023-02-03T17:36:41.352Z,14.35
2023-02-03T17:55:33.818Z,16.35
2023-02-03T17:58:03.994Z,15.57
2023-02-03T18:00:33.015Z,19.60
2023-02-03T18:03:02.019Z,32.50
2023-02-03T18:05:30.597Z,22.15
2023-02-03T18:08:03.347Z,25.50
2023-02-03T18:10:37.984Z,18.27
2023-02-03T18:13:08.349Z,20.95
2023-02-03T18:15:37.887Z,21.02
2023-02-03T18:18:06.760Z,22.33
2023-02-03T18:20:37.116Z,18.55
2023-02-03T18:23:05.620Z,17.98
2023-02-03T18:25:39.882Z,17.27
2023-02-03T18:28:10.396Z,16.55
2023-02-03T18:30:39.406Z,16.80
2023-02-03T18:33:08.187Z,17.23
2023-02-03T18:35:41.126Z,18.70
2023-02-03T18:38:13.123Z,15.95
2023-02-03T18:43:14.732Z,16.30
2023-02-03T18:45:47.284Z,16.42
2023-02-03T18:48:16.342Z,15.23
2023-02-03T18:50:45.845Z,14.40
2023-02-03T18:53:14.504Z,14.25
2023-02-03T18:55:44.770Z,16.17
2023-02-03T18:58:17.983Z,11.82
2023-02-03T19:00:47.565Z,14.13
2023-02-03T19:03:16.945Z,13.23
2023-02-03T19:05:45.877Z,12.93
2023-02-03T19:08:14.848Z,12.55
2023-02-03T19:10:45.137Z,11.43
2023-02-03T19:13:15.395Z,11.13
2023-02-03T19:15:49.064Z,10.40
2023-02-03T19:18:20.654Z,10.25
2023-02-03T19:20:49.974Z,11.63
2023-02-03T19:23:20.416Z,12.77
2023-02-03T19:25:52.352Z,9.70
2023-02-03T19:28:30.399Z,10.85
2023-02-03T19:31:07.968Z,10.45
2023-02-03T19:33:37.741Z,10.93
2023-02-03T19:36:07.251Z,12.32
2023-02-03T19:38:36.483Z,12.02
2023-02-03T19:41:07.520Z,11.25
2023-02-03T19:43:40.046Z,11.27
2023-02-03T19:46:09.163Z,9.88
2023-02-03T19:48:38.742Z,9.63
2023-02-03T19:51:08.612Z,8.38
2023-02-03T19:53:38.488Z,9.73
2023-02-03T19:56:07.561Z,11.30
2023-02-03T19:58:38.742Z,9.27
2023-02-03T20:01:10.398Z,7.50
2023-02-03T20:03:39.776Z,8.95
2023-02-03T20:06:10.358Z,9.15
2023-02-03T20:08:39.121Z,9.73
2023-02-03T20:11:07.972Z,9.57
2023-02-03T20:13:38.868Z,8.13
2023-02-03T20:16:08.064Z,11.40
2023-02-03T20:18:38.136Z,9.45
2023-02-03T20:21:08.158Z,8.98
2023-02-03T20:23:37.859Z,9.15
2023-02-03T20:26:07.001Z,9.43
2023-02-03T20:28:36.904Z,7.88
2023-02-03T20:31:06.591Z,7.47
2023-02-03T20:33:37.766Z,7.70
2023-02-03T20:36:10.371Z,8.65
2023-02-03T20:38:40.976Z,9.82
2023-02-03T20:41:13.855Z,8.45
2023-02-03T20:43:44.125Z,7.93
2023-02-03T20:46:15.567Z,8.35
2023-02-03T20:48:46.840Z,6.75
2023-02-03T20:51:17.456Z,9.00
2023-02-03T20:53:46.223Z,5.70
2023-02-03T20:56:17.414Z,7.43
2023-02-03T20:58:50.157Z,8.38
2023-02-03T21:01:24.001Z,8.93
2023-02-03T21:04:11.950Z,8.65
2023-02-03T21:06:41.312Z,9.30
2023-02-03T21:09:15.020Z,8.55
2023-02-03T21:11:44.445Z,10.13
2023-02-03T21:14:23.862Z,8.30
2023-02-03T21:16:54.189Z,8.40
2023-02-03T21:19:29.937Z,9.27
2023-02-03T21:22:00.396Z,10.10
2023-02-03T21:24:30.684Z,8.98
2023-02-03T21:27:00.737Z,8.00
2023-02-03T21:29:34.432Z,9.65
2023-02-03T21:32:02.958Z,7.65
2023-02-03T21:34:33.653Z,11.70
2023-02-03T21:37:08.873Z,10.43
2023-02-03T21:39:37.456Z,7.90
2023-02-03T21:42:41.430Z,7.00
2023-02-03T21:45:40.245Z,10.52
2023-02-03T21:48:27.799Z,8.43
2023-02-03T21:50:57.210Z,10.88
2023-02-03T21:53:28.755Z,11.05
2023-02-03T21:58:30.720Z,12.45
2023-02-03T22:01:01.823Z,10.80
2023-02-03T22:03:35.545Z,9.55
2023-02-03T22:06:17.993Z,11.85
2023-02-03T22:08:48.930Z,11.88
2023-02-03T22:11:19.554Z,12.20
2023-02-03T22:13:49.265Z,10.93
2023-02-03T22:16:20.389Z,13.07
2023-02-03T22:18:50.309Z,13.23
2023-02-03T22:21:19.618Z,9.90
2023-02-03T22:23:49.660Z,11.45
2023-02-03T22:26:22.151Z,11.38
2023-02-03T22:28:50.782Z,16.05
2023-02-03T22:31:21.838Z,11.40
2023-02-03T22:33:50.554Z,14.63
2023-02-03T22:36:18.937Z,9.70
2023-02-03T22:38:48.088Z,15.52
2023-02-03T22:41:17.507Z,10.48
2023-02-03T22:43:47.291Z,13.95
2023-02-03T22:46:16.329Z,10.95
2023-02-03T22:48:48.040Z,10.07
2023-02-03T22:51:17.003Z,10.30
2023-02-03T22:53:45.648Z,12.98
2023-02-03T22:56:14.045Z,13.60
2023-02-03T22:58:42.943Z,10.77
2023-02-03T23:01:11.943Z,14.45
2023-02-03T23:03:40.619Z,15.98
2023-02-03T23:06:11.789Z,13.02
2023-02-03T23:08:40.474Z,15.45
2023-02-03T23:11:09.025Z,15.20
2023-02-03T23:13:37.313Z,12.85
2023-02-03T23:16:09.123Z,18.23
2023-02-03T23:18:38.716Z,17.23
2023-02-03T23:21:09.944Z,16.20
2023-02-03T23:23:38.387Z,14.15
2023-02-03T23:26:07.300Z,15.55
2023-02-03T23:28:36.051Z,12.00
2023-02-03T23:31:04.877Z,16.38
2023-02-03T23:33:33.220Z,15.10
2023-02-03T23:36:00.601Z,18.00
2023-02-03T23:38:33.386Z,12.00
2023-02-03T23:41:02.203Z,15.63
2023-02-03T23:43:31.887Z,14.60
2023-02-03T23:46:00.188Z,11.00
2023-02-03T23:48:29.230Z,16.17
2023-02-03T23:50:59.089Z,13.43
2023-02-03T23:53:27.438Z,14.50
2023-02-03T23:56:00.238Z,13.65
2023-02-03T23:58:29.576Z,14.57
